Time;durP1;ratioP1;P1;durP2;ratioP2;P2;SDS_P1;SDS_P2;PMS_P1;PMS_P2;Temp;Humidity;BMP_temperature;BMP_pressure;BME280_temperature;BME280_humidity;BME280_pressure;Samples;Min_cycle;Max_cycle;Signal;HPM_P1;HPM_P2
2023/05/13 00:02:07;;;;;;;3.87;3.47;;;;;;;13.99;100.00;102003.66;5090396;28;20257;-36
2023/05/13 00:04:33;;;;;;;6.47;3.78;;;;;;;14.05;100.00;102018.25;5089993;28;20273;-36
2023/05/13 00:06:58;;;;;;;4.07;3.03;;;;;;;14.11;100.00;102020.91;5090015;28;20024;-36
2023/05/13 00:09:23;;;;;;;4.00;3.60;;;;;;;14.02;100.00;102019.53;5090522;28;20082;-36
2023/05/13 00:11:49;;;;;;;5.13;3.75;;;;;;;14.06;100.00;102018.03;5081891;28;20159;-36
2023/05/13 00:14:14;;;;;;;;;;;;;;;14.09;100.00;102014.84;5076457;28;20021;-36
2023/05/13 00:16:40;;;;;;;5.43;3.60;;;;;;;13.99;100.00;102009.09;5076579;28;19920;-36
2023/05/13 00:19:05;;;;;;;5.25;3.38;;;;;;;13.98;100.00;102015.59;5076191;28;20043;-36
2023/05/13 00:21:31;;;;;;;3.80;3.40;;;;;;;13.88;100.00;102004.41;5076793;28;20502;-36
2023/05/13 00:23:56;;;;;;;3.92;3.47;;;;;;;13.87;100.00;102019.06;5076968;28;20023;-36
2023/05/13 00:26:22;;;;;;;;;;;;;;;13.94;100.00;102017.09;5077193;28;20044;-36
2023/05/13 00:28:47;;;;;;;3.38;3.00;;;;;;;13.86;100.00;102018.25;5075836;28;19905;-37
2023/05/13 00:31:12;;;;;;;5.18;3.40;;;;;;;13.81;100.00;102011.78;5076108;28;20040;-36
2023/05/13 00:33:38;;;;;;;;;;;;;;;13.86;100.00;102012.81;5076989;28;20020;-36
2023/05/13 00:36:04;;;;;;;3.85;3.53;;;;;;;13.75;100.00;102001.81;5076537;28;19904;-36
2023/05/13 00:38:29;;;;;;;4.50;3.75;;;;;;;13.72;100.00;102011.25;5076444;28;20077;-36
2023/05/13 00:40:54;;;;;;;;;;;;;;;13.81;100.00;102014.50;5077110;28;20348;-36
2023/05/13 00:43:20;;;;;;;4.78;3.58;;;;;;;13.79;100.00;102013.91;5076090;28;19912;-36
2023/05/13 00:45:45;;;;;;;4.07;3.10;;;;;;;13.76;100.00;102025.22;5075924;28;20373;-36
2023/05/13 00:48:10;;;;;;;3.33;3.03;;;;;;;13.75;100.00;102018.13;5075514;28;20047;-36
2023/05/13 00:50:36;;;;;;;3.60;3.20;;;;;;;13.60;100.00;102011.16;5076027;28;20093;-36
2023/05/13 00:53:02;;;;;;;4.72;3.40;;;;;;;13.63;100.00;102024.28;5075867;28;20028;-36
2023/05/13 00:55:28;;;;;;;3.85;3.55;;;;;;;13.60;100.00;102022.00;5075611;28;20028;-36
2023/05/13 00:57:53;;;;;;;6.17;3.80;;;;;;;13.52;100.00;102011.44;5075877;28;20020;-36
2023/05/13 01:00:19;;;;;;;;;;;;;;;13.65;100.00;102022.19;5076534;28;20098;-36
2023/05/13 01:02:58;;;;;;;3.85;3.50;;;;;;;13.62;100.00;102027.25;5075169;28;19937;-36
2023/05/13 01:05:42;;;;;;;3.92;3.35;;;;;;;13.54;100.00;102022.09;5075711;28;20032;-36
2023/05/13 01:08:44;;;;;;;5.97;3.95;;;;;;;13.52;100.00;102016.06;5075392;28;20012;-36
2023/05/13 01:11:19;;;;;;;3.90;3.38;;;;;;;13.51;100.00;102019.81;5075577;28;20046;-36
2023/05/13 01:13:48;;;;;;;4.03;3.58;;;;;;;13.41;100.00;102009.44;5075540;28;20074;-36
2023/05/13 01:16:35;;;;;;;4.28;3.55;;;;;;;13.44;100.00;102019.88;5075478;28;20056;-36
2023/05/13 01:19:11;;;;;;;3.47;3.15;;;;;;;13.46;100.00;102023.19;5075696;28;20074;-36
2023/05/13 01:21:38;;;;;;;3.47;3.17;;;;;;;13.37;100.00;102019.06;5074910;28;20127;-36
2023/05/13 01:24:04;;;;;;;3.85;3.55;;;;;;;13.33;100.00;102018.69;5073689;28;20476;-36
2023/05/13 01:26:29;;;;;;;4.30;3.53;;;;;;;13.23;100.00;102015.66;5075839;28;20058;-36
2023/05/13 01:28:55;;;;;;;4.05;3.25;;;;;;;13.26;100.00;102011.63;5074960;28;20068;-36
2023/05/13 01:31:22;;;;;;;4.93;3.90;;;;;;;13.17;100.00;102008.31;5075513;28;20143;-36
2023/05/13 01:33:48;;;;;;;4.03;3.63;;;;;;;13.11;100.00;102020.91;5075068;28;20032;-36
2023/05/13 01:36:13;;;;;;;;;;;;;;;13.26;100.00;102017.06;5075542;28;20016;-36
2023/05/13 01:38:40;;;;;;;4.70;3.80;;;;;;;13.02;100.00;102014.06;5074671;28;19987;-36
2023/05/13 01:41:05;;;;;;;4.47;4.05;;;;;;;13.05;100.00;102015.53;5075468;28;20024;-36
2023/05/13 01:43:31;;;;;;;3.70;3.40;;;;;;;13.02;100.00;102014.06;5074862;28;20391;-37
2023/05/13 01:45:59;;;;;;;6.30;3.80;;;;;;;12.89;100.00;102023.13;5075475;28;20400;-36
2023/05/13 01:48:24;;;;;;;5.40;3.67;;;;;;;12.87;100.00;102016.25;5075047;28;20024;-36
2023/05/13 01:50:51;;;;;;;4.93;3.83;;;;;;;12.88;100.00;102023.34;5074559;28;20050;-36
2023/05/13 01:53:17;;;;;;;4.15;3.65;;;;;;;12.82;100.00;102024.22;5074381;28;20028;-36
2023/05/13 01:55:42;;;;;;;5.47;4.05;;;;;;;12.71;100.00;102024.91;5074394;28;20034;-36
2023/05/13 01:58:07;;;;;;;;;;;;;;;12.87;100.00;102024.38;5074803;28;20047;-36
2023/05/13 02:00:32;;;;;;;4.30;3.90;;;;;;;12.62;100.00;102019.72;5074936;28;19912;-36
2023/05/13 02:02:58;;;;;;;4.70;3.50;;;;;;;12.62;100.00;102022.44;5074229;28;20262;-36
2023/05/13 02:05:23;;;;;;;5.03;4.20;;;;;;;12.65;100.00;102020.34;5074561;28;20642;-36
2023/05/13 02:07:50;;;;;;;5.20;4.05;;;;;;;12.67;100.00;102018.25;5074436;28;20020;-36
2023/05/13 02:10:15;;;;;;;4.40;4.00;;;;;;;12.53;100.00;102012.88;5074097;28;20461;-36
2023/05/13 02:12:40;;;;;;;3.97;3.58;;;;;;;12.54;100.00;102014.56;5073775;28;20032;-36
2023/05/13 02:15:06;;;;;;;4.82;4.10;;;;;;;12.54;100.00;102025.41;5074399;28;20020;-36
2023/05/13 02:17:32;;;;;;;6.60;3.75;;;;;;;12.47;100.00;102008.31;5073773;28;20111;-36
2023/05/13 02:19:57;;;;;;;5.53;3.80;;;;;;;12.47;100.00;102032.72;5074795;28;20052;-36
2023/05/13 02:22:22;;;;;;;4.70;4.17;;;;;;;12.52;100.00;102027.50;5074037;28;20474;-36
2023/05/13 02:24:48;;;;;;;4.07;3.70;;;;;;;12.53;100.00;102029.16;5074818;28;20247;-36
2023/05/13 02:27:15;;;;;;;4.78;3.85;;;;;;;12.45;100.00;102029.41;5074578;28;20099;-36
2023/05/13 02:29:40;;;;;;;4.60;4.07;;;;;;;12.47;100.00;102031.91;5074678;28;20406;-36
2023/05/13 02:32:06;;;;;;;5.97;4.13;;;;;;;12.37;100.00;102029.63;5073936;28;20016;-36
2023/05/13 02:34:31;;;;;;;4.70;4.10;;;;;;;12.35;100.00;102029.03;5073532;28;20471;-36
2023/05/13 02:36:57;;;;;;;4.28;3.88;;;;;;;12.30;100.00;102035.09;5074153;28;20078;-36
2023/05/13 02:39:22;;;;;;;6.13;4.07;;;;;;;12.24;100.00;102010.69;5073662;28;20102;-36
2023/05/13 02:41:48;;;;;;;4.50;4.10;;;;;;;12.26;100.00;102030.31;5073474;28;20294;-36
2023/05/13 02:44:13;;;;;;;5.85;4.40;;;;;;;12.24;100.00;102030.50;5073410;28;20031;-36
2023/05/13 02:46:38;;;;;;;4.50;4.10;;;;;;;12.20;100.00;102023.88;5074067;28;20062;-36
2023/05/13 02:49:04;;;;;;;3.93;3.63;;;;;;;12.07;100.00;102003.03;5073376;28;20315;-36
2023/05/13 02:51:30;;;;;;;4.28;3.88;;;;;;;12.06;100.00;102019.50;5073943;28;20052;-36
2023/05/13 02:53:55;;;;;;;4.93;4.07;;;;;;;12.08;100.00;102015.53;5073880;28;20027;-36
2023/05/13 02:56:20;;;;;;;4.30;3.90;;;;;;;12.07;100.00;102021.19;5073315;28;20371;-36
2023/05/13 02:58:46;;;;;;;6.03;4.20;;;;;;;11.95;100.00;102012.84;5073540;28;20259;-36
2023/05/13 03:01:11;;;;;;;6.20;4.43;;;;;;;12.02;100.00;102024.53;5074128;28;20283;-36
2023/05/13 03:03:36;;;;;;;5.25;4.07;;;;;;;12.00;100.00;102026.59;5073180;28;20514;-36
2023/05/13 03:06:02;;;;;;;5.00;4.50;;;;;;;11.91;100.00;102024.31;5073495;28;20035;-36
2023/05/13 03:08:27;;;;;;;4.65;4.05;;;;;;;11.94;100.00;102018.47;5073183;28;20028;-36
2023/05/13 03:10:53;;;;;;;4.57;4.15;;;;;;;11.86;100.00;102011.44;5073753;28;20036;-37
2023/05/13 03:13:18;;;;;;;7.73;4.07;;;;;;;11.78;100.00;102025.16;5073720;28;20088;-36
2023/05/13 03:15:43;;;;;;;5.05;4.30;;;;;;;11.84;100.00;102032.47;5073966;28;20457;-36
2023/05/13 03:18:09;;;;;;;4.80;4.30;;;;;;;11.85;100.00;102032.25;5073398;28;20027;-36
2023/05/13 03:20:34;;;;;;;5.10;4.13;;;;;;;11.75;100.00;102030.97;5073597;28;20318;-36
2023/05/13 03:23:00;;;;;;;5.15;4.65;;;;;;;11.75;100.00;102029.09;5073270;28;20267;-36
2023/05/13 03:25:25;;;;;;;4.67;4.17;;;;;;;11.65;100.00;102017.03;5073640;28;20555;-36
2023/05/13 03:27:50;;;;;;;5.00;4.50;;;;;;;11.66;100.00;102035.78;5073274;28;20270;-37
2023/05/13 03:30:16;;;;;;;5.23;4.53;;;;;;;11.68;100.00;102027.47;5073849;28;20029;-36
2023/05/13 03:32:41;;;;;;;4.95;4.45;;;;;;;11.56;100.00;102028.06;5073270;28;20356;-36
2023/05/13 03:35:07;;;;;;;5.00;4.50;;;;;;;11.56;100.00;102022.66;5073829;28;20032;-36
2023/05/13 03:37:32;;;;;;;5.80;5.20;;;;;;;11.53;100.00;102033.09;5072863;28;20021;-36
2023/05/13 03:39:57;;;;;;;5.57;4.63;;;;;;;11.49;100.00;102029.94;5073191;28;20016;-36
2023/05/13 03:42:23;;;;;;;5.10;4.40;;;;;;;11.42;100.00;102030.97;5073200;28;20017;-36
2023/05/13 03:44:50;;;;;;;5.53;4.38;;;;;;;11.47;100.00;102033.94;5073658;28;20258;-36
2023/05/13 03:47:15;;;;;;;6.65;4.50;;;;;;;11.43;100.00;102036.22;5074875;28;20111;-36
2023/05/13 03:49:40;;;;;;;6.13;4.80;;;;;;;11.42;100.00;102034.56;5077301;28;20112;-36
2023/05/13 03:52:08;;;;;;;6.83;5.07;;;;;;;11.44;100.00;102032.44;5077372;28;20281;-36
2023/05/13 03:54:34;;;;;;;4.95;4.40;;;;;;;11.39;100.00;102037.66;5076748;28;20025;-36
2023/05/13 03:56:59;;;;;;;5.68;4.80;;;;;;;11.41;100.00;102035.56;5077552;28;20111;-36
2023/05/13 03:59:25;;;;;;;6.83;4.97;;;;;;;11.43;100.00;102036.22;5076631;28;20401;-36
2023/05/13 04:01:50;;;;;;;5.83;4.80;;;;;;;11.44;100.00;102039.75;5077455;28;20262;-36
2023/05/13 04:04:16;;;;;;;5.70;4.80;;;;;;;11.45;100.00;102042.25;5076238;28;20259;-36
2023/05/13 04:06:41;;;;;;;6.13;5.18;;;;;;;11.35;100.00;102037.22;5076844;28;20047;-36
2023/05/13 04:09:06;;;;;;;7.07;5.07;;;;;;;11.37;100.00;102033.47;5076763;28;20449;-36
2023/05/13 04:11:32;;;;;;;5.50;4.95;;;;;;;11.27;100.00;102018.50;5077286;28;20330;-36
2023/05/13 04:13:57;;;;;;;5.72;5.18;;;;;;;11.35;100.00;102042.66;5076413;28;20017;-36
2023/05/13 04:16:22;;;;;;;6.15;4.65;;;;;;;11.29;100.00;102042.66;5076658;28;20475;-36
2023/05/13 04:18:48;;;;;;;5.38;4.88;;;;;;;11.29;100.00;102042.66;5076832;28;20062;-36
2023/05/13 04:21:13;;;;;;;6.83;5.00;;;;;;;11.25;100.00;102044.09;5077061;28;20059;-36
2023/05/13 04:23:38;;;;;;;5.72;5.22;;;;;;;11.27;100.00;102037.47;5076467;28;20281;-36
2023/05/13 04:26:04;;;;;;;5.33;4.90;;;;;;;11.27;100.00;102048.28;5076278;28;20460;-36
2023/05/13 04:28:30;;;;;;;6.27;5.30;;;;;;;11.24;100.00;102042.44;5076167;28;20780;-36
2023/05/13 04:30:55;;;;;;;6.50;5.25;;;;;;;11.18;100.00;102041.41;5076699;28;20254;-36
2023/05/13 04:33:21;;;;;;;6.07;5.23;;;;;;;11.30;100.00;102047.84;5076315;28;20020;-36
2023/05/13 04:35:46;;;;;;;5.88;5.15;;;;;;;11.30;100.00;102060.56;5076384;28;20706;-36
2023/05/13 04:38:12;;;;;;;6.78;5.07;;;;;;;11.16;100.00;102040.75;5075659;28;20529;-36
2023/05/13 04:40:37;;;;;;;7.27;5.40;;;;;;;11.37;100.00;102058.72;5076455;28;20024;-36
2023/05/13 04:43:02;;;;;;;6.37;5.23;;;;;;;11.37;100.00;102056.00;5075883;28;20726;-36
2023/05/13 04:45:29;;;;;;;6.13;5.40;;;;;;;11.34;100.00;102054.53;5076141;28;20099;-36
2023/05/13 04:47:54;;;;;;;6.20;5.53;;;;;;;11.44;100.00;102059.53;5076045;28;20028;-36
2023/05/13 04:50:19;;;;;;;8.40;4.90;;;;;;;11.39;100.00;102053.91;5076133;28;20078;-36
2023/05/13 04:52:46;;;;;;;5.37;4.87;;;;;;;11.41;100.00;102059.94;5076257;28;20028;-36
2023/05/13 04:55:11;;;;;;;5.78;4.95;;;;;;;11.62;100.00;102060.81;5075614;28;20802;-36
2023/05/13 04:57:37;;;;;;;5.90;5.10;;;;;;;11.57;100.00;102056.84;5075718;28;20029;-36
2023/05/13 05:00:03;;;;;;;6.80;5.22;;;;;;;11.72;100.00;102069.34;5075842;28;20102;-36
2023/05/13 05:02:28;;;;;;;6.32;5.60;;;;;;;11.79;100.00;102067.47;5075124;28;20116;-36
2023/05/13 05:04:55;;;;;;;6.10;5.50;;;;;;;11.84;100.00;102065.00;5075487;28;20112;-36
2023/05/13 05:07:20;;;;;;;;;;;;;;;11.99;100.00;102070.19;5076134;28;20031;-36
2023/05/13 05:09:45;;;;;;;5.70;5.20;;;;;;;11.89;100.00;102069.78;5075897;28;20268;-36
2023/05/13 05:12:10;;;;;;;6.67;5.80;;;;;;;11.85;100.00;102072.06;5075393;28;20270;-36
2023/05/13 05:14:37;;;;;;;5.88;5.38;;;;;;;11.93;100.00;102066.44;5075240;28;20016;-36
2023/05/13 05:17:03;;;;;;;6.00;5.40;;;;;;;11.99;100.00;102067.47;5074908;28;20409;-36
2023/05/13 05:19:28;;;;;;;6.45;5.40;;;;;;;12.01;100.00;102066.25;5075131;28;20020;-36
2023/05/13 05:21:54;;;;;;;6.97;5.13;;;;;;;12.06;100.00;102069.16;5075184;28;20035;-36
2023/05/13 05:24:19;;;;;;;7.67;5.70;;;;;;;12.16;100.00;102065.16;5074798;28;20424;-36
2023/05/13 05:26:45;;;;;;;7.75;5.50;;;;;;;12.30;100.00;102078.50;5075876;28;20604;-36
2023/05/13 05:29:10;;;;;;;6.40;5.55;;;;;;;12.26;100.00;102071.00;5074938;28;20028;-36
2023/05/13 05:31:35;;;;;;;7.57;5.70;;;;;;;12.42;100.00;102081.38;5074948;28;20051;-36
2023/05/13 05:34:01;;;;;;;6.35;5.75;;;;;;;12.52;100.00;102084.47;5074862;28;20017;-36
2023/05/13 05:36:28;;;;;;;6.15;5.55;;;;;;;12.55;100.00;102086.75;5075118;28;20365;-36
2023/05/13 05:38:53;;;;;;;6.32;5.72;;;;;;;12.48;100.00;102088.66;5074734;28;20062;-36
2023/05/13 05:41:18;;;;;;;8.63;6.03;;;;;;;12.57;100.00;102083.81;5075210;28;20052;-36
2023/05/13 05:43:44;;;;;;;7.30;5.95;;;;;;;12.55;100.00;102089.47;5074331;28;20032;-36
2023/05/13 05:46:09;;;;;;;6.38;5.60;;;;;;;12.57;100.00;102086.53;5075482;28;20028;-37
2023/05/13 05:48:35;;;;;;;6.32;5.72;;;;;;;12.56;100.00;102099.28;5074281;28;20023;-36
2023/05/13 05:51:00;;;;;;;7.13;6.20;;;;;;;12.59;100.00;102095.28;5075107;28;20055;-36
2023/05/13 05:53:26;;;;;;;8.50;5.97;;;;;;;12.72;100.00;102086.28;5074483;28;20020;-36
2023/05/13 05:55:51;;;;;;;6.85;6.10;;;;;;;12.75;100.00;102096.72;5074832;28;20047;-36
2023/05/13 05:58:16;;;;;;;5.85;5.35;;;;;;;12.89;100.00;102088.28;5074146;28;20036;-36
2023/05/13 06:00:42;;;;;;;6.82;6.10;;;;;;;12.77;100.00;102097.31;5074587;28;20080;-36
2023/05/13 06:03:07;;;;;;;10.10;6.57;;;;;;;12.71;100.00;102090.03;5074008;28;20095;-36
2023/05/13 06:05:32;;;;;;;7.93;6.30;;;;;;;12.69;100.00;102097.53;5074019;28;20025;-36
2023/05/13 06:07:58;;;;;;;6.80;5.90;;;;;;;12.75;100.00;102102.97;5074274;28;20494;-36
2023/05/13 06:10:23;;;;;;;6.50;5.80;;;;;;;12.87;100.00;102098.53;5073976;28;20376;-36
2023/05/13 06:12:51;;;;;;;6.97;6.10;;;;;;;12.92;100.00;102100.59;5074011;28;20266;-36
2023/05/13 06:15:16;;;;;;;7.38;6.28;;;;;;;12.89;100.00;102106.47;5074075;28;20028;-36
2023/05/13 06:17:42;;;;;;;8.80;6.40;;;;;;;12.87;100.00;102090.38;5073998;28;20020;-36
2023/05/13 06:20:07;;;;;;;7.57;6.18;;;;;;;12.93;100.00;102096.81;5074544;28;20369;-36
2023/05/13 06:22:33;;;;;;;6.90;6.13;;;;;;;12.95;100.00;102105.59;5074486;28;20024;-36
2023/05/13 06:24:58;;;;;;;8.20;6.55;;;;;;;12.98;100.00;102107.03;5073686;28;20024;-36
2023/05/13 06:27:24;;;;;;;6.78;6.07;;;;;;;13.00;100.00;102100.34;5074464;28;20024;-36
2023/05/13 06:29:50;;;;;;;8.60;6.25;;;;;;;13.13;100.00;102103.00;5074130;28;20453;-37
2023/05/13 06:32:15;;;;;;;7.35;6.32;;;;;;;13.12;100.00;102109.47;5073627;28;20104;-36
2023/05/13 06:34:46;;;;;;;9.00;6.60;;;;;;;13.06;100.00;102117.66;5073739;28;20020;-36
2023/05/13 06:37:12;;;;;;;7.35;6.63;;;;;;;12.92;100.00;102121.47;5074591;28;20024;-36
2023/05/13 06:39:38;;;;;;;6.55;5.93;;;;;;;12.97;100.00;102122.50;5073647;28;20545;-37
2023/05/13 06:42:03;;;;;;;7.18;6.20;;;;;;;13.13;100.00;102113.03;5074583;28;20111;-36
2023/05/13 06:44:29;;;;;;;7.82;6.30;;;;;;;13.14;100.00;102110.09;5073744;28;20016;-36
2023/05/13 06:46:54;;;;;;;6.63;5.90;;;;;;;13.13;100.00;102103.00;5074252;28;20024;-36
2023/05/13 06:49:20;;;;;;;8.35;6.40;;;;;;;13.24;100.00;102100.69;5073409;28;20033;-36
2023/05/13 06:51:47;;;;;;;7.53;6.32;;;;;;;13.45;100.00;102107.63;5073656;28;20449;-36
2023/05/13 06:54:12;;;;;;;7.28;5.78;;;;;;;13.54;100.00;102109.03;5073386;28;20024;-36
2023/05/13 06:56:38;;;;;;;8.77;7.30;;;;;;;13.60;100.00;102127.19;5073836;28;20413;-36
2023/05/13 06:59:03;;;;;;;6.30;5.80;;;;;;;13.71;100.00;102122.91;5073516;28;20028;-36
2023/05/13 07:01:28;;;;;;;;;;;;;;;13.83;100.00;102115.72;5073702;28;20388;-36
2023/05/13 07:03:53;;;;;;;6.73;6.13;;;;;;;13.80;100.00;102105.28;5073463;28;19995;-36
2023/05/13 07:06:19;;;;;;;7.20;6.10;;;;;;;13.81;100.00;102113.25;5073253;28;20298;-36
2023/05/13 07:08:45;;;;;;;6.57;5.97;;;;;;;13.73;100.00;102109.97;5073419;28;20266;-36
2023/05/13 07:11:10;;;;;;;8.43;6.70;;;;;;;13.71;100.00;102128.34;5073668;28;20259;-36
2023/05/13 07:13:36;;;;;;;7.93;6.45;;;;;;;13.68;100.00;102128.81;5073142;28;20024;-36
2023/05/13 07:16:01;;;;;;;7.50;6.80;;;;;;;13.63;100.00;102111.28;5073957;28;20032;-36
2023/05/13 07:18:27;;;;;;;11.02;6.65;;;;;;;13.77;100.00;102097.59;5073370;28;20267;-36
2023/05/13 07:20:53;;;;;;;6.93;6.28;;;;;;;13.92;100.00;102108.97;5074024;28;20059;-36
2023/05/13 07:23:18;;;;;;;7.45;6.60;;;;;;;14.05;100.00;102111.53;5077207;28;20486;-36
2023/05/13 07:25:43;;;;;;;;;;;;;;;14.25;100.00;102108.66;5078350;28;20107;-36
2023/05/13 07:28:09;;;;;;;8.30;6.57;;;;;;;14.27;100.00;102111.13;5077274;28;19904;-36
2023/05/13 07:30:34;;;;;;;;;;;;;;;14.32;100.00;102120.28;5077965;28;20079;-36
2023/05/13 07:32:59;;;;;;;6.53;5.93;;;;;;;14.24;100.00;102112.41;5077139;28;19908;-36
2023/05/13 07:35:25;;;;;;;;;;;;;;;14.33;100.00;102112.94;5077896;28;20025;-36
2023/05/13 07:37:50;;;;;;;7.83;6.43;;;;;;;14.19;100.00;102117.69;5077088;28;19904;-36
2023/05/13 07:40:16;;;;;;;9.48;6.00;;;;;;;14.24;100.00;102112.41;5077566;28;20681;-36
2023/05/13 07:42:42;;;;;;;7.90;6.03;;;;;;;14.42;100.00;102120.59;5076974;28;20526;-36
2023/05/13 07:45:08;;;;;;;9.38;6.68;;;;;;;14.56;100.00;102115.88;5077267;28;20044;-36
2023/05/13 07:47:33;;;;;;;;;;;;;;;14.77;100.00;102111.84;5076530;28;20027;-36
2023/05/13 07:49:59;;;;;;;8.15;6.25;;;;;;;14.89;100.00;102122.84;5076825;28;20354;-36
2023/05/13 07:52:24;;;;;;;;;;;;;;;15.06;100.00;102109.41;5077255;28;20031;-37
2023/05/13 07:54:50;;;;;;;8.13;6.43;;;;;;;15.06;100.00;102121.13;5076885;28;19954;-36
2023/05/13 07:57:15;;;;;;;7.28;5.65;;;;;;;15.08;100.00;102124.47;5077307;28;20478;-37
2023/05/13 07:59:41;;;;;;;;;;;;;;;15.27;100.00;102129.84;5077199;28;20055;-36
2023/05/13 08:02:06;;;;;;;6.80;6.07;;;;;;;15.45;100.00;102121.63;5077223;28;19908;-36
2023/05/13 08:04:32;;;;;;;;;;;;;;;15.65;100.00;102119.47;5076803;28;20020;-38
2023/05/13 08:06:57;;;;;;;6.65;5.40;;;;;;;15.64;99.36;102108.78;5076590;28;19911;-37
2023/05/13 08:09:23;;;;;;;6.40;5.78;;;;;;;15.72;98.42;102113.09;5076283;28;20107;-37
2023/05/13 08:11:48;;;;;;;;;;;;;;;15.94;100.00;102106.81;5077245;28;20048;-37
2023/05/13 08:14:14;;;;;;;7.68;6.32;;;;;;;15.89;99.04;102106.69;5076112;28;20339;-37
2023/05/13 08:16:39;;;;;;;;;;;;;;;15.98;99.24;102115.38;5077650;28;20033;-37
2023/05/13 08:19:05;;;;;;;8.17;7.20;;;;;;;15.70;98.78;102108.69;5076033;28;19904;-38
2023/05/13 08:21:31;;;;;;;7.75;6.20;;;;;;;15.84;100.00;102116.66;5076539;28;20275;-37
2023/05/13 08:23:56;;;;;;;7.65;6.68;;;;;;;15.99;99.60;102116.19;5076980;28;20028;-37
2023/05/13 08:26:22;;;;;;;7.10;6.35;;;;;;;16.05;100.00;102112.50;5075906;28;20029;-37
2023/05/13 08:28:47;;;;;;;;;;;;;;;16.21;100.00;102126.28;5077334;28;20033;-37
2023/05/13 08:31:13;;;;;;;8.00;6.13;;;;;;;16.13;98.07;102120.34;5076141;28;20363;-37
2023/05/13 08:33:40;;;;;;;;;;;;;;;16.28;98.36;102131.63;5076603;28;20044;-37
2023/05/13 08:36:06;;;;;;;7.00;6.25;;;;;;;16.31;98.12;102117.50;5076891;28;20008;-37
2023/05/13 08:38:32;;;;;;;10.35;6.57;;;;;;;16.44;99.18;102111.78;5075924;28;20029;-37
2023/05/13 08:40:57;;;;;;;;;;;;;;;16.68;99.75;102111.75;5076664;28;20051;-37
2023/05/13 08:43:23;;;;;;;10.27;5.88;;;;;;;16.79;94.64;102107.34;5075962;28;20340;-37
2023/05/13 08:45:50;;;;;;;;;;;;;;;16.98;95.14;102109.69;5076620;28;20032;-37
2023/05/13 08:48:17;;;;;;;5.85;5.25;;;;;;;17.06;89.92;102118.56;5075516;28;19908;-37
2023/05/13 08:50:43;;;;;;;7.45;5.95;;;;;;;17.20;90.92;102114.47;5076093;28;20028;-37
2023/05/13 08:53:11;;;;;;;6.70;5.93;;;;;;;17.36;91.91;102107.38;5075298;28;20025;-37
2023/05/13 08:55:38;;;;;;;6.35;5.70;;;;;;;17.54;92.48;102112.63;5076331;28;20090;-37
2023/05/13 08:58:03;;;;;;;6.15;5.55;;;;;;;17.60;89.42;102105.34;5075629;28;20021;-37
2023/05/13 09:00:29;;;;;;;;;;;;;;;17.82;94.59;102110.94;5076115;28;20086;-37
2023/05/13 09:02:54;;;;;;;7.05;4.82;;;;;;;17.93;91.18;102112.75;5075815;28;19912;-37
2023/05/13 09:05:20;;;;;;;;;;;;;;;18.07;92.74;102107.78;5075570;28;20098;-37
2023/05/13 09:07:46;;;;;;;5.50;5.00;;;;;;;17.98;84.95;102099.97;5075402;28;19916;-37
2023/05/13 09:10:11;;;;;;;;;;;;;;;18.25;88.55;102099.28;5076105;28;20028;-37
2023/05/13 09:12:44;;;;;;;6.33;5.67;;;;;;;18.43;87.03;102104.47;5075643;28;19931;-37
2023/05/13 09:15:11;;;;;;;5.60;5.03;;;;;;;18.54;85.45;102110.91;5075255;28;20283;-37
2023/05/13 09:17:38;;;;;;;5.82;5.05;;;;;;;18.52;84.34;102093.91;5075186;28;20035;-37
2023/05/13 09:20:08;;;;;;;6.13;4.85;;;;;;;18.80;85.42;102105.81;5074859;28;20021;-38
2023/05/13 09:22:34;;;;;;;6.45;5.07;;;;;;;18.81;81.83;102107.44;5075029;28;20028;-37
2023/05/13 09:24:59;;;;;;;;;;;;;;;19.07;87.96;102103.91;5075825;28;20028;-37
2023/05/13 09:27:48;;;;;;;6.00;4.80;;;;;;;19.18;84.59;102097.47;5075046;28;19904;-37
2023/05/13 09:30:14;;;;;;;6.85;4.80;;;;;;;19.29;81.74;102093.72;5075516;28;20027;-38
2023/05/13 09:32:40;;;;;;;;;;;;;;;19.42;78.89;102091.63;5075615;28;20101;-36
2023/05/13 09:35:15;;;;;;;8.63;4.63;;;;;;;19.26;79.51;102094.25;5074582;28;20264;-36
2023/05/13 09:37:43;;;;;;;6.78;5.43;;;;;;;19.38;77.26;102107.00;5075066;28;20461;-36
2023/05/13 09:40:11;;;;;;;4.78;4.38;;;;;;;19.41;77.89;102077.09;5075108;28;20028;-36
2023/05/13 09:42:40;;;;;;;6.22;4.40;;;;;;;19.57;77.85;102086.31;5074652;28;20027;-36
2023/05/13 09:45:07;;;;;;;6.20;4.78;;;;;;;19.67;76.44;102094.66;5073850;28;20032;-36
2023/05/13 09:47:34;;;;;;;6.78;3.92;;;;;;;19.75;76.53;102074.94;5074600;28;20035;-36
2023/05/13 09:50:01;;;;;;;5.30;4.05;;;;;;;19.96;77.94;102080.59;5074535;28;20035;-36
2023/05/13 09:52:29;;;;;;;4.75;4.22;;;;;;;19.95;74.91;102076.19;5074820;28;20023;-36
2023/05/13 09:54:56;;;;;;;5.80;4.32;;;;;;;20.04;73.82;102088.34;5074439;28;20368;-36
2023/05/13 09:57:22;;;;;;;7.70;4.20;;;;;;;20.06;73.01;102065.03;5075232;28;20067;-36
2023/05/13 09:59:47;;;;;;;5.43;4.00;;;;;;;20.23;72.66;102081.31;5074371;28;20048;-37
2023/05/13 10:02:14;;;;;;;4.25;3.85;;;;;;;20.15;71.39;102070.81;5074652;28;20341;-36
2023/05/13 10:04:40;;;;;;;4.85;3.80;;;;;;;20.29;71.25;102068.44;5074291;28;20070;-37
2023/05/13 10:07:07;;;;;;;6.28;3.17;;;;;;;20.47;71.33;102076.25;5074851;28;20496;-36
2023/05/13 10:09:37;;;;;;;5.93;3.95;;;;;;;20.48;70.39;102060.59;5074219;28;20364;-36
2023/05/13 10:12:06;;;;;;;7.38;3.53;;;;;;;20.52;73.51;102062.53;5074760;28;20028;-36
2023/05/13 10:14:32;;;;;;;8.00;4.20;;;;;;;20.43;68.93;102063.28;5074629;28;20402;-37
2023/05/13 10:16:58;;;;;;;5.07;4.13;;;;;;;20.58;69.19;102074.38;5074169;28;20024;-37
2023/05/13 10:19:24;;;;;;;4.60;3.90;;;;;;;20.53;68.96;102058.69;5074329;28;20154;-37
2023/05/13 10:21:51;;;;;;;5.03;3.50;;;;;;;20.79;71.15;102056.88;5074889;28;20036;-37
2023/05/13 10:24:18;;;;;;;6.90;3.63;;;;;;;20.75;67.52;102058.53;5073979;28;20055;-37
2023/05/13 10:26:44;;;;;;;6.72;3.30;;;;;;;20.89;67.11;102063.50;5073640;28;20027;-37
2023/05/13 10:29:11;;;;;;;7.15;3.03;;;;;;;20.92;67.54;102054.69;5073867;28;20111;-37
2023/05/13 10:31:37;;;;;;;6.13;3.05;;;;;;;21.17;70.74;102053.94;5073647;28;20024;-37
2023/05/13 10:34:03;;;;;;;6.25;2.83;;;;;;;21.21;62.46;102058.59;5074386;28;20478;-37
2023/05/13 10:36:46;;;;;;;4.15;2.60;;;;;;;21.27;64.37;102049.25;5073871;28;20024;-37
2023/05/13 10:39:53;;;;;;;4.57;2.50;;;;;;;21.43;64.23;102046.56;5073800;28;20032;-37
2023/05/13 10:42:43;;;;;;;4.13;2.53;;;;;;;21.49;65.05;102054.53;5074003;28;20369;-37
2023/05/13 10:45:09;;;;;;;6.10;2.95;;;;;;;21.62;64.53;102046.81;5074304;28;20048;-37
2023/05/13 10:47:35;;;;;;;4.68;2.22;;;;;;;21.69;62.77;102053.69;5073400;28;20020;-37
2023/05/13 10:50:06;;;;;;;6.70;2.60;;;;;;;21.54;57.09;102048.22;5073615;28;20111;-37
2023/05/13 10:52:45;;;;;;;3.67;2.30;;;;;;;21.73;60.08;102048.47;5074229;28;20174;-37
2023/05/13 10:55:16;;;;;;;3.58;2.38;;;;;;;21.70;58.13;102022.31;5073768;28;20052;-37
2023/05/13 10:57:41;;;;;;;4.35;2.30;;;;;;;21.97;61.12;102038.53;5073624;28;20472;-37
2023/05/13 11:00:18;;;;;;;3.35;2.55;;;;;;;22.07;60.75;102043.19;5073474;28;20041;-37
2023/05/13 11:02:43;;;;;;;3.00;2.10;;;;;;;22.01;57.04;102038.78;5073540;28;20112;-37
2023/05/13 11:05:18;;;;;;;4.00;2.05;;;;;;;22.18;57.50;102038.50;5073458;28;20103;-37
2023/05/13 11:07:54;;;;;;;3.53;1.90;;;;;;;22.33;54.79;102038.44;5073791;28;20383;-37
2023/05/13 11:10:30;;;;;;;3.80;2.00;;;;;;;22.35;54.46;102037.06;5074324;28;20028;-37
2023/05/13 11:13:27;;;;;;;;;;;;;;;22.54;58.14;102036.41;5074163;28;20021;-37
2023/05/13 11:15:54;;;;;;;4.70;2.10;;;;;;;22.63;54.75;102040.25;5050391;28;20374;-37
2023/05/13 11:18:28;;;;;;;7.72;2.45;;;;;;;22.54;53.73;102036.41;5073031;28;20328;-37
2023/05/13 11:20:55;;;;;;;3.40;2.00;;;;;;;22.68;55.87;102025.59;5073322;28;20070;-38
2023/05/13 11:23:20;;;;;;;3.10;1.80;;;;;;;22.28;48.88;102024.69;5073292;28;20427;-37
2023/05/13 11:25:46;;;;;;;4.68;2.00;;;;;;;22.17;55.35;102012.88;5073608;28;20028;-37